Airfield :
LOGIN :

Register | Disclaimer

   EN    FR    IT 

 










Legend :    VFR   Marginal VFR   IFR   Intensive IFR   Very Intensive IFR
Visi :
Ceiling :
>= 8 km
>= 3000ft
5 to 8 km
1000 to 3000 ft
1500m to 5 km
500 to 1000 ft
800 to 1500m
200 to 500 ft
< 800m
< 200 ft
Symbols :   Thunderstorms  Fog  Heavy snow  Heavy precipitations  Wind > 20 kt
SIGMETs :     Misc.  Thunderstorms  Icing  Turbulence  Mountain Waves  Volcanic Ashes







- Airport Elevation : 359 ft
- IATA code : BVA
- Download approach charts


LFOB - Beauvais

CURRENT METAR :
  • 262130Z AUTO VRB02KT 9000 NSC 12/11 Q1022 BECMG 2000 BR

EXPIRED METARs :
  • 262100Z AUTO 00000KT CAVOK 13/10 Q1022 BECMG 2000 BR
  • 262030Z AUTO VRB02KT 9999 BKN041 BKN050 14/11 Q1022 BECMG 2000 BR
  • 262000Z AUTO 36004KT 9999 BKN043 15/11 Q1022 BECMG 2000 BR
  • 261930Z AUTO 02005KT CAVOK 15/11 Q1022 BECMG 2000 BR
  • 261900Z AUTO 03003KT CAVOK 16/11 Q1022 NOSIG

TAF TAF LFOB
Valid from the 26 at 18:00 until the 27 at 18:00 UTC


261700Z 2618/2718 04005KT 9999 SCT040
BECMG 2621/2624 2000 BR
PROB40
TEMPO 2705/2709 1200 OVC002
BECMG 2709/2712 9999 NSW SCT020
ATIS : +33 3 44 11 49 28
No reported NOTAMs for that airfield.



MET'MAP, your aeronautical weather chart ! - Copyright ORBIFLY December 2007 - Disclaimer

ORBIFLY MET'MAP TEAM :

Programming & Development : Alexandra Zaïnal
Concept & Development : Baudouin d'Aumeries
Co-Development & Prog : Marc-Olivier Méhu
Technical & hardware support : Manuel Goepfert

Contact : metmap@orbifly.com




SOURCES & CREDITS :

   NOAA